| time (UTC) | temp C | wind direction | speed KPH | gust KPH | rain 1hr cm | rain 24hr cm | rain mn cm | humidity % | barometer mb |
| 20260505050540 | 9 | 134 | 1.6 | 3.2 | 0.00 | 0.15 | 0.13 | 86 | 1497.7 |
| 20260505041533 | 10 | 145 | 1.6 | 4.8 | 0.05 | 0.15 | 0.13 | 86 | 1497.4 |
| 20260505041032 | 10 | 144 | 3.2 | 3.2 | 0.08 | 0.15 | 0.13 | 87 | 1497.4 |
| 20260505040532 | 10 | 133 | 1.6 | 4.8 | 0.10 | 0.15 | 0.13 | 86 | 1497.1 |
| 20260505040032 | 10 | 121 | 3.2 | 4.8 | 0.10 | 0.15 | 0.13 | 86 | 1497.1 |
| 20260505035531 | 10 | 132 | 0.0 | 3.2 | 0.10 | 0.15 | 0.13 | 86 | 1497.0 |
| 20260505035031 | 10 | 157 | 0.0 | 1.6 | 0.10 | 0.15 | 0.13 | 86 | 1497.0 |
| 20260505034530 | 10 | 163 | 3.2 | 4.8 | 0.10 | 0.15 | 0.13 | 85 | 1496.9 |
| 20260505034029 | 10 | 128 | 1.6 | 4.8 | 0.13 | 0.15 | 0.13 | 84 | 1496.7 |
| 20260505033528 | 10 | 142 | 1.6 | 3.2 | 0.10 | 0.15 | 0.10 | 83 | 1496.5 |
| 20260505033028 | 10 | 168 | 0.0 | 1.6 | 0.10 | 0.13 | 0.10 | 83 | 1496.3 |
| 20260505032527 | 10 | 164 | 0.0 | 3.2 | 0.08 | 0.13 | 0.10 | 82 | 1496.0 |
| 20260505032026 | 10 | 83 | 1.6 | 4.8 | 0.08 | 0.10 | 0.08 | 82 | 1496.0 |
| 20260505031526 | 10 | 0 | 0.0 | 0.0 | 0.08 | 0.10 | 0.08 | 82 | 1495.7 |
| 20260505031026 | 10 | 308 | 0.0 | 1.6 | 0.05 | 0.08 | 0.05 | 83 | 1495.4 |
| 20260505030525 | 10 | 259 | 3.2 | 4.8 | 0.03 | 0.05 | 0.03 | 81 | 1494.9 |
| 20260505030025 | 10 | 170 | 3.2 | 4.8 | 0.03 | 0.05 | 0.03 | 80 | 1494.3 |
| 20260505025524 | 10 | 140 | 1.6 | 3.2 | 0.03 | 0.05 | 0.03 | 80 | 1493.5 |
| 20260505025023 | 11 | 166 | 6.4 | 8.0 | 0.03 | 0.05 | 0.03 | 79 | 1492.6 |
| 20260505024523 | 11 | 182 | 4.8 | 8.0 | 0.00 | 0.05 | 0.03 | 76 | 1491.7 |
| 20260505024022 | 11 | 167 | 4.8 | 11.3 | 0.00 | 0.03 | 0.00 | 72 | 1491.0 |
| 20260505023521 | 11 | 190 | 3.2 | 4.8 | 0.00 | 0.03 | 0.00 | 70 | 1490.6 |
| 20260505023020 | 11 | 0 | 0.0 | 0.0 | 0.00 | 0.03 | 0.00 | 70 | 1490.3 |
| 20260505022519 | 11 | 214 | 0.0 | 1.6 | 0.00 | 0.03 | 0.00 | 70 | 1489.9 |
| 20260505022018 | 11 | 197 | 0.0 | 3.2 | 0.00 | 0.03 | 0.00 | 69 | 1489.4 |
| 20260505021518 | 11 | 0 | 0.0 | 0.0 | 0.00 | 0.03 | 0.00 | 69 | 1489.2 |
| 20260505021018 | 11 | 245 | 0.0 | 1.6 | 0.00 | 0.03 | 0.00 | 69 | 1489.1 |
| 20260505020517 | 12 | 257 | 3.2 | 6.4 | 0.00 | 0.03 | 0.00 | 68 | 1489.2 |
| 20260505020016 | 12 | 241 | 4.8 | 6.4 | 0.00 | 0.03 | 0.00 | 68 | 1489.0 |
| 20260505015516 | 12 | 246 | 3.2 | 6.4 | 0.00 | 0.03 | 0.00 | 67 | 1488.8 |
| 20260505015016 | 12 | 252 | 6.4 | 9.7 | 0.00 | 0.03 | 0.00 | 66 | 1488.8 |
| 20260505014515 | 12 | 261 | 3.2 | 8.0 | 0.00 | 0.03 | 0.00 | 69 | 1488.8 |
| 20260505014015 | 12 | 257 | 4.8 | 8.0 | 0.00 | 0.03 | 0.00 | 70 | 1488.7 |
| 20260505013514 | 12 | 254 | 6.4 | 9.7 | 0.00 | 0.03 | 0.00 | 68 | 1488.3 |
| 20260505013014 | 12 | 239 | 6.4 | 9.7 | 0.00 | 0.03 | 0.00 | 69 | 1488.1 |
| 20260505012514 | 12 | 253 | 6.4 | 11.3 | 0.00 | 0.03 | 0.00 | 69 | 1488.1 |
| 20260505012013 | 12 | 261 | 6.4 | 9.7 | 0.00 | 0.03 | 0.00 | 70 | 1488.0 |
| 20260505011513 | 12 | 248 | 4.8 | 8.0 | 0.00 | 0.03 | 0.00 | 70 | 1487.8 |
| 20260505011012 | 12 | 244 | 4.8 | 9.7 | 0.00 | 0.03 | 0.00 | 70 | 1487.6 |
| 20260505010511 | 12 | 234 | 9.7 | 12.9 | 0.00 | 0.03 | 0.00 | 71 | 1486.3 |
| 20260505010011 | 13 | 226 | 6.4 | 11.3 | 0.00 | 0.03 | 0.00 | 68 | 1483.4 |
| 20260505005510 | 14 | 240 | 8.0 | 11.3 | 0.00 | 0.03 | 0.00 | 55 | 1481.4 |
| 20260505005010 | 14 | 256 | 3.2 | 4.8 | 0.00 | 0.03 | 0.00 | 53 | 1481.0 |
| 20260505004510 | 14 | 262 | 3.2 | 6.4 | 0.00 | 0.03 | 0.00 | 54 | 1480.5 |
| 20260505004010 | 15 | 278 | 1.6 | 4.8 | 0.00 | 0.03 | 0.00 | 54 | 1480.2 |
| 20260505003510 | 15 | 266 | 1.6 | 4.8 | 0.00 | 0.03 | 0.00 | 54 | 1480.0 |
| 20260505003009 | 15 | 294 | 3.2 | 4.8 | 0.00 | 0.03 | 0.00 | 54 | 1479.8 |
| 20260505002508 | 15 | 272 | 4.8 | 8.0 | 0.00 | 0.03 | 0.00 | 53 | 1479.6 |
| 20260505002008 | 15 | 275 | 3.2 | 4.8 | 0.00 | 0.03 | 0.00 | 53 | 1479.4 |
| 20260505001507 | 15 | 280 | 3.2 | 4.8 | 0.00 | 0.03 | 0.00 | 53 | 1479.5 |
| 20260505001006 | 15 | 288 | 3.2 | 6.4 | 0.00 | 0.03 | 0.00 | 54 | 1479.9 |
| 20260505000506 | 15 | 306 | 1.6 | 3.2 | 0.00 | 0.03 | 0.00 | 56 | 1480.1 |
| 20260505000005 | 14 | 283 | 4.8 | 8.0 | 0.00 | 0.03 | 0.03 | 55 | 1480.2 |
| 20260504235504 | 14 | 284 | 4.8 | 6.4 | 0.00 | 0.03 | 0.03 | 56 | 1480.3 |
| 20260504235002 | 14 | 286 | 3.2 | 6.4 | 0.00 | 0.03 | 0.03 | 55 | 1480.6 |
| 20260504234502 | 14 | 299 | 4.8 | 6.4 | 0.00 | 0.03 | 0.03 | 57 | 1480.8 |
| 20260504234001 | 14 | 306 | 4.8 | 8.0 | 0.00 | 0.03 | 0.03 | 56 | 1481.6 |
| 20260504233500 | 13 | 289 | 3.2 | 6.4 | 0.00 | 0.03 | 0.03 | 63 | 1482.5 |
| 20260504233000 | 13 | 279 | 4.8 | 8.0 | 0.00 | 0.03 | 0.03 | 66 | 1482.4 |
| 20260504232500 | 14 | 234 | 6.4 | 11.3 | 0.00 | 0.03 | 0.03 | 62 | 1481.9 |
| 20260504231959 | 14 | 248 | 6.4 | 8.0 | 0.00 | 0.03 | 0.03 | 61 | 1480.7 |
| 20260504231459 | 15 | 238 | 11.3 | 17.7 | 0.00 | 0.03 | 0.03 | 58 | 1478.0 |
| 20260504230958 | 16 | 189 | 14.5 | 17.7 | 0.00 | 0.03 | 0.03 | 45 | 1474.4 |
| 20260504230457 | 17 | 208 | 6.4 | 9.7 | 0.00 | 0.03 | 0.03 | 42 | 1473.3 |
| 20260504225956 | 17 | 241 | 4.8 | 6.4 | 0.00 | 0.03 | 0.03 | 40 | 1472.8 |
| 20260504225456 | 17 | 259 | 6.4 | 9.7 | 0.00 | 0.03 | 0.03 | 39 | 1472.4 |
| 20260504224956 | 17 | 228 | 6.4 | 11.3 | 0.00 | 0.03 | 0.03 | 38 | 1472.1 |
| 20260504224455 | 17 | 243 | 4.8 | 8.0 | 0.00 | 0.03 | 0.03 | 39 | 1471.6 |
| 20260504223955 | 17 | 284 | 3.2 | 4.8 | 0.00 | 0.03 | 0.03 | 39 | 1471.2 |
| 20260504223453 | 17 | 289 | 1.6 | 4.8 | 0.00 | 0.03 | 0.03 | 39 | 1471.1 |
| 20260504222953 | 17 | 258 | 1.6 | 4.8 | 0.00 | 0.03 | 0.03 | 41 | 1471.2 |
| 20260504222453 | 17 | 276 | 4.8 | 6.4 | 0.00 | 0.03 | 0.03 | 40 | 1470.9 |
| 20260504221952 | 17 | 273 | 3.2 | 6.4 | 0.03 | 0.03 | 0.03 | 41 | 1470.8 |
| 20260504221452 | 17 | 284 | 4.8 | 6.4 | 0.03 | 0.03 | 0.03 | 39 | 1470.8 |
| 20260504220951 | 17 | 311 | 3.2 | 4.8 | 0.03 | 0.03 | 0.03 | 41 | 1470.9 |
| 20260504220451 | 17 | 339 | 3.2 | 8.0 | 0.03 | 0.03 | 0.03 | 41 | 1471.2 |
| 20260504215951 | 16 | 285 | 4.8 | 8.0 | 0.03 | 0.03 | 0.03 | 43 | 1471.7 |
| 20260504215450 | 16 | 273 | 4.8 | 8.0 | 0.03 | 0.03 | 0.03 | 45 | 1472.9 |
| 20260504214950 | 16 | 295 | 3.2 | 6.4 | 0.03 | 0.03 | 0.03 | 47 | 1474.4 |
| 20260504214448 | 16 | 308 | 4.8 | 6.4 | 0.03 | 0.03 | 0.03 | 52 | 1475.0 |
| 20260504213948 | 16 | 286 | 4.8 | 8.0 | 0.03 | 0.03 | 0.03 | 50 | 1475.1 |
| 20260504213447 | 16 | 254 | 6.4 | 9.7 | 0.03 | 0.03 | 0.03 | 48 | 1474.1 |
| 20260504212947 | 17 | 241 | 8.0 | 11.3 | 0.03 | 0.03 | 0.03 | 39 | 1473.3 |
| 20260504212446 | 17 | 242 | 3.2 | 6.4 | 0.00 | 0.00 | 0.00 | 40 | 1473.5 |
| 20260504211946 | 17 | 265 | 3.2 | 8.0 | 0.00 | 0.00 | 0.00 | 41 | 1473.0 |
| 20260504211445 | 17 | 270 | 11.3 | 27.4 | 0.00 | 0.00 | 0.00 | 37 | 1471.6 |
| 20260504210944 | 17 | 239 | 8.0 | 12.9 | 0.00 | 0.00 | 0.00 | 34 | 1471.1 |
| 20260504210443 | 17 | 244 | 6.4 | 11.3 | 0.00 | 0.00 | 0.00 | 33 | 1471.1 |
| 20260504205942 | 17 | 238 | 9.7 | 12.9 | 0.00 | 0.00 | 0.00 | 35 | 1470.8 |
| 20260504205441 | 18 | 249 | 9.7 | 12.9 | 0.00 | 0.00 | 0.00 | 37 | 1469.2 |
| 20260504204939 | 18 | 292 | 8.0 | 9.7 | 0.00 | 0.00 | 0.00 | 32 | 1468.4 |
| 20260504204439 | 18 | 296 | 8.0 | 11.3 | 0.00 | 0.00 | 0.00 | 32 | 1467.2 |
| 20260504203938 | 18 | 297 | 9.7 | 12.9 | 0.00 | 0.00 | 0.00 | 31 | 1466.0 |
| 20260504203438 | 19 | 295 | 11.3 | 17.7 | 0.00 | 0.00 | 0.00 | 30 | 1464.7 |
| 20260504202938 | 19 | 306 | 11.3 | 16.1 | 0.00 | 0.00 | 0.00 | 29 | 1463.7 |
| 20260504202437 | 20 | 293 | 12.9 | 17.7 | 0.00 | 0.00 | 0.00 | 29 | 1463.0 |
| 20260504201935 | 20 | 299 | 9.7 | 14.5 | 0.00 | 0.00 | 0.00 | 30 | 1461.7 |
| 20260504201434 | 21 | 295 | 11.3 | 14.5 | 0.00 | 0.00 | 0.00 | 28 | 1459.6 |
| 20260504200934 | 22 | 280 | 8.0 | 11.3 | 0.00 | 0.00 | 0.00 | 25 | 1457.6 |
| 20260504200434 | 22 | 277 | 4.8 | 8.0 | 0.00 | 0.00 | 0.00 | 23 | 1457.0 |
| 20260504195933 | 22 | 271 | 9.7 | 14.5 | 0.00 | 0.00 | 0.00 | 23 | 1456.6 |
| 20260504195432 | 22 | 227 | 9.7 | 14.5 | 0.00 | 0.00 | 0.00 | 24 | 1456.0 |
| 20260504194932 | 22 | 244 | 11.3 | 16.1 | 0.00 | 0.00 | 0.00 | 24 | 1455.2 |
| 20260504194431 | 23 | 233 | 11.3 | 14.5 | 0.00 | 0.00 | 0.00 | 24 | 1454.7 |
| 20260504193930 | 23 | 238 | 4.8 | 9.7 | 0.00 | 0.00 | 0.00 | 24 | 1453.2 |
| 20260504193430 | 23 | 238 | 8.0 | 11.3 | 0.00 | 0.00 | 0.00 | 24 | 1452.3 |
| 20260504192929 | 23 | 212 | 9.7 | 17.7 | 0.00 | 0.00 | 0.00 | 24 | 1452.7 |
| 20260504192429 | 23 | 257 | 8.0 | 12.9 | 0.00 | 0.00 | 0.00 | 24 | 1453.5 |
| 20260504191929 | 23 | 246 | 6.4 | 11.3 | 0.00 | 0.00 | 0.00 | 23 | 1454.1 |
| 20260504191428 | 23 | 218 | 6.4 | 11.3 | 0.00 | 0.00 | 0.00 | 23 | 1454.1 |
| 20260504190928 | 23 | 192 | 6.4 | 11.3 | 0.00 | 0.00 | 0.00 | 23 | 1453.7 |
| 20260504190427 | 23 | 197 | 6.4 | 9.7 | 0.00 | 0.00 | 0.00 | 22 | 1454.1 |
| 20260504185927 | 23 | 210 | 6.4 | 11.3 | 0.00 | 0.00 | 0.00 | 22 | 1454.3 |
| 20260504185426 | 23 | 213 | 4.8 | 8.0 | 0.00 | 0.00 | 0.00 | 24 | 1454.3 |
| 20260504184926 | 23 | 197 | 8.0 | 12.9 | 0.00 | 0.00 | 0.00 | 23 | 1454.6 |
| 20260504184426 | 22 | 230 | 6.4 | 8.0 | 0.00 | 0.00 | 0.00 | 24 | 1455.7 |
| 20260504183926 | 22 | 176 | 6.4 | 11.3 | 0.00 | 0.00 | 0.00 | 24 | 1456.0 |
| 20260504183425 | 22 | 198 | 9.7 | 12.9 | 0.00 | 0.00 | 0.00 | 24 | 1455.8 |
| 20260504182924 | 22 | 186 | 8.0 | 12.9 | 0.00 | 0.00 | 0.00 | 25 | 1456.7 |
| 20260504182423 | 22 | 188 | 9.7 | 12.9 | 0.00 | 0.00 | 0.00 | 26 | 1457.7 |
| 20260504181923 | 22 | 154 | 8.0 | 12.9 | 0.00 | 0.00 | 0.00 | 26 | 1458.4 |
| 20260504181423 | 22 | 175 | 9.7 | 16.1 | 0.00 | 0.00 | 0.00 | 26 | 1458.7 |
| 20260504180922 | 21 | 169 | 9.7 | 17.7 | 0.00 | 0.00 | 0.00 | 27 | 1459.3 |
| 20260504180421 | 21 | 191 | 8.0 | 16.1 | 0.00 | 0.00 | 0.00 | 27 | 1460.1 |
| 20260504175920 | 21 | 195 | 11.3 | 16.1 | 0.00 | 0.00 | 0.00 | 26 | 1460.7 |
| 20260504175419 | 21 | 186 | 8.0 | 14.5 | 0.00 | 0.00 | 0.00 | 27 | 1460.9 |
| 20260504174916 | 21 | 178 | 11.3 | 14.5 | 0.00 | 0.00 | 0.00 | 27 | 1460.7 |
| 20260504174415 | 21 | 172 | 8.0 | 16.1 | 0.00 | 0.00 | 0.00 | 27 | 1461.1 |
| 20260504173915 | 21 | 200 | 9.7 | 14.5 | 0.00 | 0.00 | 0.00 | 26 | 1461.3 |
| 20260504173415 | 20 | 154 | 12.9 | 16.1 | 0.00 | 0.00 | 0.00 | 28 | 1462.4 |
| 20260504172915 | 20 | 164 | 12.9 | 17.7 | 0.00 | 0.00 | 0.00 | 28 | 1462.9 |
| 20260504172414 | 20 | 162 | 12.9 | 20.9 | 0.00 | 0.00 | 0.00 | 28 | 1463.2 |
| 20260504171913 | 20 | 165 | 11.3 | 16.1 | 0.00 | 0.00 | 0.00 | 28 | 1463.4 |
| 20260504171413 | 20 | 159 | 8.0 | 11.3 | 0.00 | 0.00 | 0.00 | 29 | 1464.4 |
| 20260504170912 | 20 | 168 | 8.0 | 17.7 | 0.00 | 0.00 | 0.00 | 29 | 1464.7 |
| 20260504170411 | 20 | 178 | 8.0 | 11.3 | 0.00 | 0.00 | 0.00 | 29 | 1465.1 |
| 20260504160406 | 18 | 174 | 6.4 | 8.0 | 0.00 | 0.00 | 0.00 | 30 | 1468.6 |
| 20260504150859 | 13 | 152 | 3.2 | 4.8 | 0.00 | 0.00 | 0.00 | 42 | 1483.1 |
| 20260504150359 | 13 | 164 | 3.2 | 4.8 | 0.00 | 0.00 | 0.00 | 42 | 1483.6 |
| 20260504140847 | 10 | 172 | 3.2 | 4.8 | 0.00 | 0.00 | 0.00 | 49 | 1492.2 |
| 20260504140347 | 10 | 156 | 4.8 | 6.4 | 0.00 | 0.00 | 0.00 | 50 | 1493.5 |
| 20260504130341 | 6 | 0 | 0.0 | 0.0 | 0.00 | 0.00 | 0.00 | 68 | 1503.8 |
| 20260504110325 | 5 | 211 | 0.0 | 1.6 | 0.00 | 0.00 | 0.00 | 58 | 1508.0 |
| 20260504100317 | 6 | 0 | 0.0 | 0.0 | 0.00 | 0.00 | 0.00 | 62 | 1504.4 |
| 20260504081801 | 8 | 0 | 0.0 | 0.0 | 0.00 | 0.00 | 0.00 | 51 | 1497.9 |
| 20260504081301 | 8 | 0 | 0.0 | 0.0 | 0.00 | 0.00 | 0.00 | 51 | 1497.5 |
| 20260504080801 | 8 | 211 | 0.0 | 0.0 | 0.00 | 0.00 | 0.00 | 50 | 1497.0 |
| 20260504080300 | 8 | 204 | 0.0 | 3.2 | 0.00 | 0.00 | 0.00 | 50 | 1497.1 |
| 20260504070253 | 10 | 259 | 1.6 | 3.2 | 0.00 | 0.00 | 0.00 | 45 | 1494.5 |
| 20260504060247 | 11 | 269 | 1.6 | 4.8 | 0.00 | 0.00 | 0.00 | 42 | 1490.8 |
| 20260504050739 | 13 | 277 | 0.0 | 1.6 | 0.00 | 0.00 | 0.00 | 37 | 1485.0 |